Terminal Aerodrome Forecast
Issued by NWS Albany, NY

Home | Current Version | Previous Version | Text Only | Print | Product List | Glossary On
Versions: 1 2 3 4 5 6 7 8 9 10 11 12 13 14 15 16 17 18 19 20 21 22
000
FTUS41 KALY 012300
TAFGFL
TAF
KGFL 012320Z 0200/0224 16005KT P6SM FEW050 SCT100
     FM020300 VRB03KT 3SM BR FEW050 SCT100 SCT250
      TEMPO 0203/0206 1SM BR BKN002
     FM020600 00000KT 1/2SM FG VV002
     FM021300 20005KT 6SM BR VCFG SCT002 BKN025 BKN100
     FM021500 19005KT 6SM HZ BKN050 BKN100 PROB30 0215/0221 3SM
      -TSRA BR BKN045CB=

USA.gov is the U.S. government's official web portal to all federal, state and local government web resources and services.